createdAt,value
2023-03-18T00:01:10.665Z,11.25
2023-03-18T00:03:38.673Z,10.13
2023-03-18T00:06:09.256Z,9.57
2023-03-18T00:08:37.739Z,10.43
2023-03-18T00:11:05.604Z,9.20
2023-03-18T00:13:35.617Z,10.02
2023-03-18T00:16:04.365Z,10.25
2023-03-18T00:18:32.788Z,9.75
2023-03-18T00:21:01.009Z,7.18
2023-03-18T00:23:28.627Z,9.13
2023-03-18T00:25:56.897Z,9.02
2023-03-18T00:28:24.441Z,8.85
2023-03-18T00:30:51.712Z,9.00
2023-03-18T00:33:19.513Z,8.35
2023-03-18T00:35:47.591Z,9.40
2023-03-18T00:38:21.219Z,9.23
2023-03-18T00:41:01.382Z,7.97
2023-03-18T00:43:33.576Z,8.32
2023-03-18T00:46:00.856Z,8.32
2023-03-18T00:48:27.934Z,8.60
2023-03-18T00:50:54.747Z,8.50
2023-03-18T00:53:23.730Z,8.10
2023-03-18T00:55:50.540Z,8.52
2023-03-18T00:58:17.270Z,8.18
2023-03-18T01:00:44.187Z,8.15
2023-03-18T01:03:11.036Z,7.93
2023-03-18T01:05:38.275Z,8.13
2023-03-18T01:08:05.268Z,7.90
2023-03-18T01:10:33.141Z,8.18
2023-03-18T01:13:01.135Z,8.45
2023-03-18T01:15:28.316Z,9.07
2023-03-18T01:17:56.998Z,8.20
2023-03-18T01:20:25.572Z,9.38
2023-03-18T01:22:52.528Z,8.57
2023-03-18T01:25:19.621Z,8.60
2023-03-18T01:27:46.558Z,8.98
2023-03-18T01:30:14.092Z,9.05
2023-03-18T01:32:41.623Z,8.95
2023-03-18T01:35:08.947Z,8.90
2023-03-18T01:37:36.743Z,8.85
2023-03-18T01:40:03.834Z,8.88
2023-03-18T01:42:31.824Z,8.75
2023-03-18T01:45:18.035Z,8.68
2023-03-18T01:47:46.647Z,8.68
2023-03-18T01:50:17.053Z,9.05
2023-03-18T01:52:45.623Z,8.38
2023-03-18T01:55:22.814Z,9.50
2023-03-18T01:57:51.575Z,9.07
2023-03-18T02:00:20.092Z,8.85
2023-03-18T02:02:48.456Z,9.35
2023-03-18T02:05:19.640Z,8.65
2023-03-18T02:07:46.959Z,9.75
2023-03-18T02:10:18.326Z,8.52
2023-03-18T02:12:50.830Z,6.78
2023-03-18T02:15:21.469Z,8.95
2023-03-18T02:17:55.608Z,6.53
2023-03-18T02:20:40.681Z,9.15
2023-03-18T02:23:32.033Z,7.75
2023-03-18T02:26:17.613Z,7.00
2023-03-18T02:28:45.344Z,8.77
2023-03-18T02:31:16.689Z,9.60
2023-03-18T02:33:44.590Z,8.37
2023-03-18T02:36:25.252Z,8.98
2023-03-18T02:38:52.090Z,8.98
2023-03-18T02:41:27.465Z,9.68
2023-03-18T02:43:54.979Z,8.40
2023-03-18T02:46:33.467Z,12.30
2023-03-18T02:49:02.676Z,8.88
2023-03-18T02:51:30.376Z,9.82
2023-03-18T02:54:08.065Z,10.02
2023-03-18T02:56:35.268Z,9.75
2023-03-18T02:59:02.226Z,10.25
2023-03-18T03:01:30.039Z,9.27
2023-03-18T03:03:56.848Z,9.68
2023-03-18T03:06:24.374Z,9.57
2023-03-18T03:08:51.610Z,9.10
2023-03-18T03:11:19.113Z,9.70
2023-03-18T03:13:46.303Z,9.00
2023-03-18T03:16:17.871Z,10.20
2023-03-18T03:18:44.720Z,8.98
2023-03-18T03:21:12.912Z,9.32
2023-03-18T03:23:41.293Z,9.02
2023-03-18T03:26:08.211Z,9.32
2023-03-18T03:28:35.261Z,8.35
2023-03-18T03:31:02.273Z,8.93
2023-03-18T03:33:29.476Z,10.10
2023-03-18T03:35:58.148Z,9.07
2023-03-18T03:38:25.583Z,8.80
2023-03-18T03:40:53.877Z,9.68
2023-03-18T03:43:21.229Z,9.18
2023-03-18T03:45:48.251Z,9.43
2023-03-18T03:48:15.056Z,9.00
2023-03-18T03:50:41.975Z,9.55
2023-03-18T03:53:10.297Z,10.30
2023-03-18T03:55:37.879Z,11.00
2023-03-18T03:58:05.080Z,11.00
2023-03-18T04:00:33.256Z,9.65
2023-03-18T04:03:00.358Z,9.13
2023-03-18T04:05:27.223Z,9.88
2023-03-18T04:07:55.352Z,10.45
2023-03-18T04:10:22.913Z,9.07
2023-03-18T04:12:50.462Z,10.18
2023-03-18T04:15:19.895Z,10.25
2023-03-18T04:17:46.868Z,10.25
2023-03-18T04:20:14.796Z,10.27
2023-03-18T04:22:42.174Z,10.75
2023-03-18T04:25:11.247Z,10.18
2023-03-18T04:27:39.252Z,9.70
2023-03-18T04:30:08.423Z,9.52
2023-03-18T04:32:35.759Z,9.82
2023-03-18T04:35:03.077Z,9.27
2023-03-18T04:37:29.942Z,11.45
2023-03-18T04:39:56.953Z,12.52
2023-03-18T04:42:23.708Z,11.48
2023-03-18T04:44:50.659Z,10.05
2023-03-18T04:47:18.360Z,11.35
2023-03-18T04:49:45.424Z,10.43
2023-03-18T04:52:12.531Z,11.15
2023-03-18T04:54:39.776Z,11.45
2023-03-18T04:57:07.489Z,11.27
2023-03-18T04:59:34.436Z,11.23
2023-03-18T05:02:01.301Z,11.38
2023-03-18T05:04:28.321Z,11.63
2023-03-18T05:06:55.188Z,11.23
2023-03-18T05:09:21.972Z,11.13
2023-03-18T05:11:48.729Z,10.93
2023-03-18T05:14:15.552Z,11.48
2023-03-18T05:16:43.336Z,11.10
2023-03-18T05:19:10.700Z,11.82
2023-03-18T05:21:38.125Z,11.68
2023-03-18T05:24:05.184Z,11.77
2023-03-18T05:26:31.934Z,11.73
2023-03-18T05:28:59.390Z,11.18
2023-03-18T05:31:26.213Z,11.05
2023-03-18T05:33:53.070Z,11.75
2023-03-18T05:36:19.868Z,12.52
2023-03-18T05:38:46.784Z,11.30
2023-03-18T05:41:13.940Z,10.65
2023-03-18T05:43:40.711Z,11.93
2023-03-18T05:46:07.730Z,10.32
2023-03-18T05:48:34.536Z,10.27
2023-03-18T05:51:01.279Z,11.38
2023-03-18T05:53:28.697Z,11.05
2023-03-18T05:55:56.454Z,12.23
2023-03-18T05:58:24.091Z,12.48
2023-03-18T06:00:50.982Z,12.73
2023-03-18T06:03:19.353Z,11.95
2023-03-18T06:05:47.640Z,11.98
2023-03-18T06:08:15.205Z,12.07
2023-03-18T06:10:41.972Z,11.75
2023-03-18T06:13:11.671Z,12.70
2023-03-18T06:15:38.857Z,12.55
2023-03-18T06:18:05.659Z,12.10
2023-03-18T06:20:32.447Z,11.93
2023-03-18T06:22:59.965Z,12.60
2023-03-18T06:25:26.861Z,12.65
2023-03-18T06:27:53.776Z,13.63
2023-03-18T06:30:20.744Z,13.13
2023-03-18T06:32:47.735Z,12.35
2023-03-18T06:35:15.650Z,12.57
2023-03-18T06:37:43.508Z,13.43
2023-03-18T06:40:12.361Z,12.95
2023-03-18T06:42:39.429Z,13.32
2023-03-18T06:45:07.618Z,13.90
2023-03-18T06:47:34.491Z,12.50
2023-03-18T06:50:01.655Z,12.88
2023-03-18T06:52:28.471Z,13.00
2023-03-18T06:54:55.267Z,11.52
2023-03-18T06:57:22.095Z,11.38
2023-03-18T06:59:49.274Z,12.65
2023-03-18T07:02:16.184Z,13.10
2023-03-18T07:04:43.424Z,13.07
2023-03-18T07:07:10.676Z,13.88
2023-03-18T07:09:37.595Z,13.18
2023-03-18T07:12:04.562Z,12.75
2023-03-18T07:14:31.444Z,12.75
2023-03-18T07:16:58.454Z,13.50
2023-03-18T07:19:25.352Z,14.00
2023-03-18T07:21:52.180Z,13.45
2023-03-18T07:24:21.536Z,13.82
2023-03-18T07:26:50.421Z,14.57
2023-03-18T07:29:17.595Z,13.18
2023-03-18T07:31:44.535Z,13.93
2023-03-18T07:34:12.929Z,12.43
2023-03-18T07:36:39.730Z,13.07
2023-03-18T07:39:07.645Z,12.50
2023-03-18T07:41:37.334Z,12.48
2023-03-18T07:44:05.629Z,13.95
2023-03-18T07:46:32.518Z,14.02
2023-03-18T07:49:00.008Z,14.25
2023-03-18T07:51:27.335Z,12.80
2023-03-18T07:53:54.128Z,13.10
2023-03-18T07:56:21.395Z,14.18
2023-03-18T07:58:48.265Z,12.95
2023-03-18T08:01:18.462Z,12.98
2023-03-18T08:03:46.734Z,12.52
2023-03-18T08:06:15.512Z,13.10
2023-03-18T08:08:43.034Z,13.93
2023-03-18T08:11:10.288Z,13.60
2023-03-18T08:13:38.794Z,13.90
2023-03-18T08:16:06.128Z,12.73
2023-03-18T08:18:33.034Z,14.02
2023-03-18T08:21:01.819Z,20.00
2023-03-18T08:23:28.712Z,15.60
2023-03-18T08:25:55.537Z,12.98
2023-03-18T08:28:22.492Z,12.07
2023-03-18T08:30:53.231Z,13.63
2023-03-18T08:33:20.022Z,13.25
2023-03-18T08:35:47.983Z,15.30
2023-03-18T08:38:14.841Z,13.27
2023-03-18T08:40:42.335Z,13.02
2023-03-18T08:43:09.291Z,13.63
2023-03-18T08:45:36.999Z,13.77
2023-03-18T08:48:03.934Z,13.63
2023-03-18T08:50:30.762Z,13.55
2023-03-18T08:52:59.940Z,13.68
2023-03-18T08:55:37.296Z,13.82
2023-03-18T08:58:06.011Z,12.98
2023-03-18T09:00:34.782Z,13.85
2023-03-18T09:03:01.844Z,13.68
2023-03-18T09:05:28.866Z,13.85
2023-03-18T09:07:55.751Z,14.05
2023-03-18T09:10:22.667Z,13.68
2023-03-18T09:12:50.087Z,14.00
2023-03-18T09:15:31.806Z,13.93
2023-03-18T09:18:11.130Z,13.63
2023-03-18T09:20:39.239Z,13.45
2023-03-18T09:23:06.969Z,14.30
2023-03-18T09:25:34.403Z,13.88
2023-03-18T09:28:01.421Z,14.95
2023-03-18T09:30:28.808Z,15.13
2023-03-18T09:32:56.698Z,14.32
2023-03-18T09:35:24.307Z,14.20
2023-03-18T09:37:52.017Z,14.18
2023-03-18T09:40:25.932Z,14.32
2023-03-18T09:43:18.365Z,14.60
2023-03-18T09:48:17.992Z,14.38
2023-03-18T09:50:56.702Z,27.95
2023-03-18T09:53:48.428Z,15.57
2023-03-18T09:56:24.483Z,14.38
2023-03-18T09:59:01.124Z,14.35
2023-03-18T10:01:29.192Z,15.05
2023-03-18T10:04:13.573Z,14.85
2023-03-18T10:06:43.220Z,14.40
2023-03-18T10:09:51.048Z,14.68
2023-03-18T10:12:39.962Z,15.27
2023-03-18T10:15:21.528Z,15.75
2023-03-18T10:17:58.236Z,15.52
2023-03-18T10:20:53.223Z,14.55
2023-03-18T10:23:38.216Z,15.07
2023-03-18T10:26:14.095Z,14.52
2023-03-18T10:29:01.405Z,15.15
2023-03-18T10:31:50.121Z,15.32
2023-03-18T10:34:24.722Z,15.75
2023-03-18T10:37:04.127Z,15.30
2023-03-18T10:39:33.800Z,15.25
2023-03-18T10:42:10.612Z,16.17
2023-03-18T10:44:41.567Z,16.95
2023-03-18T10:47:08.756Z,16.65
2023-03-18T10:49:40.524Z,16.38
2023-03-18T10:52:12.063Z,17.38
2023-03-18T10:54:53.288Z,16.20
2023-03-18T10:57:22.059Z,18.10
2023-03-18T10:59:52.238Z,16.75
2023-03-18T11:02:35.907Z,17.70
2023-03-18T11:05:11.868Z,16.67
2023-03-18T11:07:56.663Z,17.58
2023-03-18T11:10:32.301Z,17.33
2023-03-18T11:13:02.789Z,17.35
2023-03-18T11:15:36.152Z,17.67
2023-03-18T11:18:03.358Z,19.73
2023-03-18T11:20:45.512Z,18.48
2023-03-18T11:23:17.950Z,18.63
2023-03-18T11:25:49.830Z,17.88
2023-03-18T11:28:28.075Z,19.38
2023-03-18T11:31:00.457Z,18.85
2023-03-18T11:33:35.210Z,18.15
2023-03-18T11:36:14.301Z,18.98
2023-03-18T11:38:41.070Z,18.20
2023-03-18T11:41:24.188Z,18.88
2023-03-18T11:44:06.723Z,19.65
2023-03-18T11:46:47.871Z,19.80
2023-03-18T11:49:21.461Z,18.33
2023-03-18T11:52:02.939Z,19.90
2023-03-18T11:54:45.812Z,19.63
2023-03-18T11:57:50.020Z,20.23
2023-03-18T12:00:31.838Z,20.30
2023-03-18T12:03:13.729Z,19.00
2023-03-18T12:06:00.594Z,20.27
2023-03-18T12:08:49.907Z,20.25
2023-03-18T12:11:38.388Z,19.80
2023-03-18T12:14:34.565Z,19.40
2023-03-18T12:17:08.122Z,21.27
2023-03-18T12:20:02.926Z,20.27
2023-03-18T12:22:50.642Z,20.42
2023-03-18T12:26:01.062Z,21.40
2023-03-18T12:29:05.415Z,20.88
2023-03-18T12:31:53.357Z,21.75
2023-03-18T12:34:28.525Z,21.27
2023-03-18T12:37:05.592Z,21.25
2023-03-18T12:40:06.144Z,20.38
2023-03-18T12:43:00.765Z,21.92
2023-03-18T12:45:33.071Z,20.10
2023-03-18T12:48:04.593Z,20.75
2023-03-18T12:50:41.344Z,21.67
2023-03-18T12:53:22.539Z,22.13
2023-03-18T12:55:57.586Z,21.52
2023-03-18T12:58:29.024Z,22.20
2023-03-18T13:01:17.982Z,20.30
2023-03-18T13:03:53.994Z,21.75
2023-03-18T13:06:30.998Z,20.10
2023-03-18T13:09:09.941Z,21.85
2023-03-18T13:11:55.509Z,22.00
2023-03-18T13:14:41.075Z,20.95
2023-03-18T13:17:23.521Z,20.58
2023-03-18T13:19:50.546Z,21.58
2023-03-18T13:22:43.983Z,22.15
2023-03-18T13:25:34.560Z,22.10
2023-03-18T13:28:41.747Z,23.00
2023-03-18T13:31:08.512Z,21.45
2023-03-18T13:34:10.815Z,21.60
2023-03-18T13:37:10.091Z,23.08
2023-03-18T13:39:42.950Z,30.25
2023-03-18T13:42:23.162Z,23.23
2023-03-18T13:45:25.893Z,20.92
2023-03-18T13:48:01.316Z,21.98
2023-03-18T13:50:31.567Z,23.35
2023-03-18T13:53:01.576Z,20.52
2023-03-18T13:55:35.422Z,22.70
2023-03-18T13:58:09.232Z,22.67
2023-03-18T14:00:40.519Z,22.23
2023-03-18T14:03:21.905Z,22.45
2023-03-18T14:06:08.488Z,21.55
2023-03-18T14:08:42.893Z,20.50
2023-03-18T14:11:47.327Z,21.35
2023-03-18T14:14:48.369Z,21.50
2023-03-18T14:17:22.595Z,21.00
2023-03-18T14:19:54.505Z,21.17
2023-03-18T14:25:18.776Z,20.13
2023-03-18T14:28:15.610Z,19.33
2023-03-18T14:30:49.195Z,19.25
2023-03-18T14:33:20.094Z,20.45
2023-03-18T14:35:48.220Z,19.33
2023-03-18T14:38:29.914Z,20.10
2023-03-18T14:40:58.863Z,19.63
2023-03-18T14:43:30.091Z,20.23
2023-03-18T14:46:01.843Z,20.92
2023-03-18T14:48:34.548Z,21.02
2023-03-18T14:51:04.970Z,20.67
2023-03-18T14:53:48.983Z,20.17
2023-03-18T14:56:23.832Z,20.42
2023-03-18T14:58:55.217Z,19.58
2023-03-18T15:01:38.652Z,19.05
2023-03-18T15:04:15.670Z,18.92
2023-03-18T15:06:43.042Z,19.05
2023-03-18T15:09:19.224Z,18.27
2023-03-18T15:11:47.849Z,19.60
2023-03-18T15:14:30.168Z,19.92
2023-03-18T15:17:00.018Z,19.75
2023-03-18T15:19:28.792Z,19.67
2023-03-18T15:21:58.876Z,20.58
2023-03-18T15:24:26.983Z,19.90
2023-03-18T15:27:08.909Z,19.50
2023-03-18T15:29:57.501Z,19.67
2023-03-18T15:32:28.381Z,20.65
2023-03-18T15:35:05.559Z,22.55
2023-03-18T15:37:40.203Z,21.20
2023-03-18T15:40:30.023Z,20.05
2023-03-18T15:43:08.275Z,22.40
2023-03-18T15:45:36.183Z,21.40
2023-03-18T15:48:21.787Z,21.33
2023-03-18T15:50:54.120Z,21.67
2023-03-18T15:53:39.663Z,20.52
2023-03-18T15:56:19.703Z,21.42
2023-03-18T15:58:56.804Z,23.17
2023-03-18T16:01:23.592Z,20.35
2023-03-18T16:03:51.462Z,22.98
2023-03-18T16:06:18.320Z,21.98
2023-03-18T16:08:46.241Z,22.55
2023-03-18T16:11:15.368Z,23.70
2023-03-18T16:13:44.662Z,23.60
2023-03-18T16:16:26.243Z,24.05
2023-03-18T16:18:53.048Z,23.02
2023-03-18T16:21:20.771Z,24.23
2023-03-18T16:23:48.480Z,23.98
2023-03-18T16:26:17.438Z,24.30
2023-03-18T16:28:47.091Z,24.40
2023-03-18T16:31:15.403Z,25.83
2023-03-18T16:33:42.602Z,24.23
2023-03-18T16:36:25.809Z,24.08
2023-03-18T16:38:52.795Z,24.65
2023-03-18T16:41:19.726Z,24.25
2023-03-18T16:43:49.111Z,24.73
2023-03-18T16:46:17.367Z,23.83
2023-03-18T16:48:44.532Z,23.35
2023-03-18T16:51:11.321Z,24.88
2023-03-18T16:53:38.116Z,23.92
2023-03-18T16:56:16.349Z,24.77
2023-03-18T16:58:44.567Z,22.80
2023-03-18T17:01:16.445Z,24.55
2023-03-18T17:03:43.756Z,23.90
2023-03-18T17:06:10.716Z,24.73
2023-03-18T17:08:38.346Z,24.23
2023-03-18T17:11:05.510Z,23.60
2023-03-18T17:13:35.002Z,24.85
2023-03-18T17:16:01.810Z,24.45
2023-03-18T17:18:28.638Z,24.67
2023-03-18T17:20:55.531Z,26.63
2023-03-18T17:23:26.720Z,24.80
2023-03-18T17:25:56.851Z,25.83
2023-03-18T17:28:28.337Z,25.55
2023-03-18T17:30:55.236Z,27.30
2023-03-18T17:33:31.202Z,30.10
2023-03-18T17:36:00.309Z,29.85
2023-03-18T17:38:28.284Z,27.60
2023-03-18T17:40:55.588Z,28.65
2023-03-18T17:43:27.837Z,27.15
2023-03-18T17:45:58.410Z,26.13
2023-03-18T17:48:27.680Z,29.95
2023-03-18T17:50:57.286Z,25.38
2023-03-18T17:53:37.415Z,27.88
2023-03-18T17:56:06.250Z,25.13
2023-03-18T17:58:34.487Z,26.15
2023-03-18T18:01:22.731Z,31.00
2023-03-18T18:03:49.691Z,28.90
2023-03-18T18:06:19.086Z,29.20
2023-03-18T18:08:47.499Z,29.20
2023-03-18T18:11:22.156Z,29.40
2023-03-18T18:13:50.087Z,28.33
2023-03-18T18:16:17.504Z,31.77
2023-03-18T18:18:44.651Z,31.90
2023-03-18T18:21:15.460Z,27.70
2023-03-18T18:23:44.851Z,28.35
2023-03-18T18:26:14.792Z,32.58
2023-03-18T18:28:48.176Z,38.58
2023-03-18T18:31:17.677Z,63.38
2023-03-18T18:33:45.812Z,37.88
2023-03-18T18:36:14.171Z,41.25
2023-03-18T18:38:41.353Z,34.25
2023-03-18T18:41:08.211Z,30.20
2023-03-18T18:43:35.017Z,29.20
2023-03-18T18:46:02.105Z,28.80
2023-03-18T18:48:31.851Z,31.17
2023-03-18T18:51:00.205Z,27.35
2023-03-18T18:53:38.702Z,28.08
2023-03-18T18:56:23.614Z,31.48
2023-03-18T18:58:52.066Z,30.95
2023-03-18T19:01:20.041Z,28.10
2023-03-18T19:03:48.317Z,34.42
2023-03-18T19:06:36.533Z,32.70
2023-03-18T19:09:15.082Z,30.25
2023-03-18T19:11:41.800Z,28.55
2023-03-18T19:14:29.210Z,22.88
2023-03-18T19:17:01.179Z,18.45
2023-03-18T19:19:30.989Z,20.92
2023-03-18T19:21:57.812Z,15.77
2023-03-18T19:24:26.650Z,14.55
2023-03-18T19:26:59.395Z,17.77
2023-03-18T19:29:27.153Z,17.02
2023-03-18T19:31:54.720Z,17.80
2023-03-18T19:34:22.136Z,19.23
2023-03-18T19:36:53.136Z,18.60
2023-03-18T19:39:22.032Z,16.20
2023-03-18T19:41:49.065Z,14.27
2023-03-18T19:44:18.858Z,11.32
2023-03-18T19:46:47.427Z,11.40
2023-03-18T19:49:27.052Z,11.50
2023-03-18T19:51:54.786Z,11.10
2023-03-18T19:54:27.364Z,10.48
2023-03-18T19:56:56.745Z,11.77
2023-03-18T19:59:33.559Z,10.45
2023-03-18T20:02:11.602Z,10.82
2023-03-18T20:04:38.391Z,10.90
2023-03-18T20:07:06.424Z,11.05
2023-03-18T20:09:33.395Z,10.85
2023-03-18T20:12:06.024Z,15.23
2023-03-18T20:14:38.083Z,15.93
2023-03-18T20:19:53.584Z,16.35
2023-03-18T20:22:27.396Z,18.52
2023-03-18T20:24:54.499Z,24.30
2023-03-18T20:27:21.943Z,23.52
2023-03-18T20:29:49.049Z,23.75
2023-03-18T20:32:15.939Z,25.80
2023-03-18T20:34:43.902Z,28.10
2023-03-18T20:37:40.419Z,26.30
2023-03-18T20:40:34.465Z,26.63
2023-03-18T20:43:01.831Z,25.85
2023-03-18T20:45:28.956Z,24.33
2023-03-18T20:47:56.705Z,21.52
2023-03-18T20:50:29.889Z,25.52
2023-03-18T20:52:57.575Z,24.27
2023-03-18T20:55:35.823Z,22.42
2023-03-18T20:58:03.000Z,22.90
2023-03-18T21:00:33.173Z,24.63
2023-03-18T21:03:02.978Z,25.42
2023-03-18T21:05:30.017Z,23.45
2023-03-18T21:07:56.782Z,24.85
2023-03-18T21:10:25.942Z,24.95
2023-03-18T21:12:53.265Z,21.92
2023-03-18T21:15:22.946Z,21.90
2023-03-18T21:17:50.006Z,21.55
2023-03-18T21:20:25.690Z,19.38
2023-03-18T21:22:53.170Z,19.77
2023-03-18T21:25:25.694Z,20.55
2023-03-18T21:27:52.613Z,20.30
2023-03-18T21:30:22.060Z,20.13
2023-03-18T21:32:50.527Z,19.58
2023-03-18T21:35:23.502Z,20.35
2023-03-18T21:37:51.696Z,18.95
2023-03-18T21:40:26.220Z,17.90
2023-03-18T21:42:53.265Z,19.05
2023-03-18T21:45:23.623Z,20.38
2023-03-18T21:47:52.449Z,21.27
2023-03-18T21:50:21.850Z,20.60
2023-03-18T21:52:49.298Z,21.40
2023-03-18T21:55:16.432Z,19.45
2023-03-18T21:57:43.396Z,20.70
2023-03-18T22:00:20.744Z,21.67
2023-03-18T22:02:48.285Z,21.13
2023-03-18T22:05:24.597Z,21.70
2023-03-18T22:07:51.952Z,21.40
2023-03-18T22:10:22.399Z,20.70
2023-03-18T22:12:50.095Z,21.45
2023-03-18T22:15:38.432Z,19.27
2023-03-18T22:18:07.199Z,22.67
2023-03-18T22:20:36.064Z,24.30
2023-03-18T22:23:12.969Z,25.65
2023-03-18T22:25:41.618Z,25.05
2023-03-18T22:28:08.691Z,23.90
2023-03-18T22:30:35.782Z,25.75
2023-03-18T22:33:05.459Z,26.55
2023-03-18T22:35:33.000Z,25.25
2023-03-18T22:37:59.998Z,24.73
2023-03-18T22:40:29.594Z,24.17
2023-03-18T22:43:01.646Z,23.42
2023-03-18T22:45:33.479Z,25.50
2023-03-18T22:48:03.739Z,26.70
2023-03-18T22:50:33.840Z,26.75
2023-03-18T22:53:08.961Z,28.13
2023-03-18T22:55:38.784Z,27.83
2023-03-18T22:58:07.620Z,27.30
2023-03-18T23:00:40.008Z,27.15
2023-03-18T23:03:18.300Z,25.98
2023-03-18T23:05:47.075Z,25.80
2023-03-18T23:08:14.529Z,24.30
2023-03-18T23:10:42.782Z,24.48
2023-03-18T23:13:21.689Z,27.08
2023-03-18T23:15:48.420Z,27.48
2023-03-18T23:18:16.840Z,27.52
2023-03-18T23:20:49.350Z,26.77
2023-03-18T23:23:17.543Z,23.75
2023-03-18T23:25:45.673Z,26.75
2023-03-18T23:28:13.373Z,26.67
2023-03-18T23:30:42.041Z,28.10
2023-03-18T23:33:09.857Z,26.55
2023-03-18T23:35:38.206Z,27.05
2023-03-18T23:38:06.580Z,27.35
2023-03-18T23:40:33.803Z,26.48
2023-03-18T23:43:01.036Z,27.77
2023-03-18T23:45:28.107Z,28.33
2023-03-18T23:47:55.960Z,28.67
2023-03-18T23:50:23.429Z,27.27
2023-03-18T23:52:50.509Z,27.63
2023-03-18T23:55:33.088Z,26.60
2023-03-18T23:58:01.382Z,27.17
